sensor_id;sensor_type;location;lat;lon;timestamp;temperature;humidity
26909;DHT22;14477;51.038;4.588;2023-11-21T00:00:19;11.30;99.90
26909;DHT22;14477;51.038;4.588;2023-11-21T00:02:46;11.20;99.90
26909;DHT22;14477;51.038;4.588;2023-11-21T00:05:13;11.30;99.90
26909;DHT22;14477;51.038;4.588;2023-11-21T00:07:42;11.30;99.90
26909;DHT22;14477;51.038;4.588;2023-11-21T00:10:09;11.30;99.90
26909;DHT22;14477;51.038;4.588;2023-11-21T00:12:36;11.20;99.90
26909;DHT22;14477;51.038;4.588;2023-11-21T00:15:02;11.20;99.90
26909;DHT22;14477;51.038;4.588;2023-11-21T00:17:28;11.20;99.90
26909;DHT22;14477;51.038;4.588;2023-11-21T00:19:54;11.20;99.90
26909;DHT22;14477;51.038;4.588;2023-11-21T00:22:21;11.20;99.90
26909;DHT22;14477;51.038;4.588;2023-11-21T00:24:47;11.10;99.90
26909;DHT22;14477;51.038;4.588;2023-11-21T00:27:13;11.10;99.90
26909;DHT22;14477;51.038;4.588;2023-11-21T00:29:40;11.10;99.90
26909;DHT22;14477;51.038;4.588;2023-11-21T00:32:06;11.10;99.90
26909;DHT22;14477;51.038;4.588;2023-11-21T00:34:32;11.00;99.90
26909;DHT22;14477;51.038;4.588;2023-11-21T00:36:58;11.00;99.90
26909;DHT22;14477;51.038;4.588;2023-11-21T00:39:24;10.90;99.90
26909;DHT22;14477;51.038;4.588;2023-11-21T00:41:51;10.90;99.90
26909;DHT22;14477;51.038;4.588;2023-11-21T00:44:17;10.90;99.90
26909;DHT22;14477;51.038;4.588;2023-11-21T00:46:43;11.00;99.90
26909;DHT22;14477;51.038;4.588;2023-11-21T00:49:09;10.80;99.90
26909;DHT22;14477;51.038;4.588;2023-11-21T00:51:35;10.80;99.90
26909;DHT22;14477;51.038;4.588;2023-11-21T00:54:01;10.80;99.90
26909;DHT22;14477;51.038;4.588;2023-11-21T00:56:27;10.70;99.90
26909;DHT22;14477;51.038;4.588;2023-11-21T00:58:54;10.70;99.90
26909;DHT22;14477;51.038;4.588;2023-11-21T01:01:20;10.70;99.90
26909;DHT22;14477;51.038;4.588;2023-11-21T01:03:47;10.60;99.90
26909;DHT22;14477;51.038;4.588;2023-11-21T01:06:16;10.70;99.90
26909;DHT22;14477;51.038;4.588;2023-11-21T01:08:44;10.70;99.90
26909;DHT22;14477;51.038;4.588;2023-11-21T01:11:10;10.70;99.90
26909;DHT22;14477;51.038;4.588;2023-11-21T01:13:38;10.70;99.90
26909;DHT22;14477;51.038;4.588;2023-11-21T01:16:05;10.70;99.90
26909;DHT22;14477;51.038;4.588;2023-11-21T01:18:35;10.70;99.90
26909;DHT22;14477;51.038;4.588;2023-11-21T01:21:01;10.70;99.90
26909;DHT22;14477;51.038;4.588;2023-11-21T01:23:27;10.70;99.90
26909;DHT22;14477;51.038;4.588;2023-11-21T01:25:55;10.80;99.90
26909;DHT22;14477;51.038;4.588;2023-11-21T01:28:21;10.80;99.90
26909;DHT22;14477;51.038;4.588;2023-11-21T01:30:47;10.80;99.90
26909;DHT22;14477;51.038;4.588;2023-11-21T01:33:13;10.80;99.90
26909;DHT22;14477;51.038;4.588;2023-11-21T01:35:41;10.80;99.90
26909;DHT22;14477;51.038;4.588;2023-11-21T01:38:07;10.90;99.90
26909;DHT22;14477;51.038;4.588;2023-11-21T01:40:34;10.90;99.90
26909;DHT22;14477;51.038;4.588;2023-11-21T01:43:00;10.90;99.90
26909;DHT22;14477;51.038;4.588;2023-11-21T01:45:29;10.90;99.90
26909;DHT22;14477;51.038;4.588;2023-11-21T01:47:56;10.90;99.90
26909;DHT22;14477;51.038;4.588;2023-11-21T01:50:26;10.90;99.90
26909;DHT22;14477;51.038;4.588;2023-11-21T01:52:53;10.90;99.90
26909;DHT22;14477;51.038;4.588;2023-11-21T01:55:19;10.90;99.90
26909;DHT22;14477;51.038;4.588;2023-11-21T01:57:46;10.80;99.90
26909;DHT22;14477;51.038;4.588;2023-11-21T02:00:12;10.80;99.90
26909;DHT22;14477;51.038;4.588;2023-11-21T02:02:43;10.80;99.90
26909;DHT22;14477;51.038;4.588;2023-11-21T02:05:14;10.80;99.90
26909;DHT22;14477;51.038;4.588;2023-11-21T02:07:41;10.80;99.90
26909;DHT22;14477;51.038;4.588;2023-11-21T02:10:08;10.80;99.90
26909;DHT22;14477;51.038;4.588;2023-11-21T02:12:35;10.80;99.90
26909;DHT22;14477;51.038;4.588;2023-11-21T02:15:03;10.80;99.90
26909;DHT22;14477;51.038;4.588;2023-11-21T02:17:43;10.90;99.90
26909;DHT22;14477;51.038;4.588;2023-11-21T02:20:11;10.90;99.90
26909;DHT22;14477;51.038;4.588;2023-11-21T02:22:41;10.90;99.90
26909;DHT22;14477;51.038;4.588;2023-11-21T02:25:08;10.90;99.90
26909;DHT22;14477;51.038;4.588;2023-11-21T02:27:34;10.90;99.90
26909;DHT22;14477;51.038;4.588;2023-11-21T02:29:59;10.90;99.90
26909;DHT22;14477;51.038;4.588;2023-11-21T02:32:26;10.90;99.90
26909;DHT22;14477;51.038;4.588;2023-11-21T02:34:52;10.90;99.90
26909;DHT22;14477;51.038;4.588;2023-11-21T02:37:21;11.00;99.90
26909;DHT22;14477;51.038;4.588;2023-11-21T02:39:47;11.00;99.90
26909;DHT22;14477;51.038;4.588;2023-11-21T02:42:13;11.00;99.90
26909;DHT22;14477;51.038;4.588;2023-11-21T02:44:38;11.00;99.90
26909;DHT22;14477;51.038;4.588;2023-11-21T02:47:04;11.00;99.90
26909;DHT22;14477;51.038;4.588;2023-11-21T02:49:30;11.00;99.90
26909;DHT22;14477;51.038;4.588;2023-11-21T02:51:56;11.00;99.90
26909;DHT22;14477;51.038;4.588;2023-11-21T02:54:21;11.10;99.90
26909;DHT22;14477;51.038;4.588;2023-11-21T02:56:48;11.10;99.90
26909;DHT22;14477;51.038;4.588;2023-11-21T02:59:15;13.70;99.90
26909;DHT22;14477;51.038;4.588;2023-11-21T03:01:41;11.10;99.90
26909;DHT22;14477;51.038;4.588;2023-11-21T03:04:07;11.10;99.90
26909;DHT22;14477;51.038;4.588;2023-11-21T03:06:33;11.10;99.90
26909;DHT22;14477;51.038;4.588;2023-11-21T03:08:59;11.20;99.90
26909;DHT22;14477;51.038;4.588;2023-11-21T03:11:25;11.20;99.90
26909;DHT22;14477;51.038;4.588;2023-11-21T03:13:51;11.20;99.90
26909;DHT22;14477;51.038;4.588;2023-11-21T03:16:18;11.20;99.90
26909;DHT22;14477;51.038;4.588;2023-11-21T03:18:45;11.20;99.90
26909;DHT22;14477;51.038;4.588;2023-11-21T03:21:11;11.20;99.90
26909;DHT22;14477;51.038;4.588;2023-11-21T03:23:37;11.20;99.90
26909;DHT22;14477;51.038;4.588;2023-11-21T03:26:03;11.30;99.90
26909;DHT22;14477;51.038;4.588;2023-11-21T03:28:29;11.30;99.90
26909;DHT22;14477;51.038;4.588;2023-11-21T03:30:58;11.30;99.90
26909;DHT22;14477;51.038;4.588;2023-11-21T03:33:23;11.30;99.90
26909;DHT22;14477;51.038;4.588;2023-11-21T03:35:49;11.30;99.90
26909;DHT22;14477;51.038;4.588;2023-11-21T03:38:15;11.30;99.90
26909;DHT22;14477;51.038;4.588;2023-11-21T03:40:41;11.30;99.90
26909;DHT22;14477;51.038;4.588;2023-11-21T03:43:07;11.30;99.90
26909;DHT22;14477;51.038;4.588;2023-11-21T03:45:33;11.30;99.90
26909;DHT22;14477;51.038;4.588;2023-11-21T03:47:59;11.30;99.90
26909;DHT22;14477;51.038;4.588;2023-11-21T03:50:30;11.40;99.90
26909;DHT22;14477;51.038;4.588;2023-11-21T03:52:55;11.40;99.90
26909;DHT22;14477;51.038;4.588;2023-11-21T03:55:21;11.40;99.90
26909;DHT22;14477;51.038;4.588;2023-11-21T03:57:48;11.40;99.90
26909;DHT22;14477;51.038;4.588;2023-11-21T04:00:14;11.40;99.90
26909;DHT22;14477;51.038;4.588;2023-11-21T04:02:40;11.40;99.90
26909;DHT22;14477;51.038;4.588;2023-11-21T04:05:06;11.40;99.90
26909;DHT22;14477;51.038;4.588;2023-11-21T04:07:32;11.40;99.90
26909;DHT22;14477;51.038;4.588;2023-11-21T04:09:59;11.40;99.90
26909;DHT22;14477;51.038;4.588;2023-11-21T04:12:24;11.40;99.90
26909;DHT22;14477;51.038;4.588;2023-11-21T04:14:50;11.40;99.90
26909;DHT22;14477;51.038;4.588;2023-11-21T04:17:18;11.40;99.90
26909;DHT22;14477;51.038;4.588;2023-11-21T04:19:44;11.40;99.90
26909;DHT22;14477;51.038;4.588;2023-11-21T04:22:10;11.40;99.90
26909;DHT22;14477;51.038;4.588;2023-11-21T04:24:36;10.70;99.90
26909;DHT22;14477;51.038;4.588;2023-11-21T04:27:02;11.40;99.90
26909;DHT22;14477;51.038;4.588;2023-11-21T04:29:28;11.40;99.90
26909;DHT22;14477;51.038;4.588;2023-11-21T04:31:54;11.40;99.90
26909;DHT22;14477;51.038;4.588;2023-11-21T04:34:20;11.40;99.90
26909;DHT22;14477;51.038;4.588;2023-11-21T04:36:45;11.40;99.90
26909;DHT22;14477;51.038;4.588;2023-11-21T04:39:11;11.40;99.90
26909;DHT22;14477;51.038;4.588;2023-11-21T04:41:37;11.40;99.90
26909;DHT22;14477;51.038;4.588;2023-11-21T04:44:05;11.40;99.90
26909;DHT22;14477;51.038;4.588;2023-11-21T04:46:31;11.40;99.90
26909;DHT22;14477;51.038;4.588;2023-11-21T04:48:58;11.40;99.90
26909;DHT22;14477;51.038;4.588;2023-11-21T04:51:24;11.40;99.90
26909;DHT22;14477;51.038;4.588;2023-11-21T04:53:50;11.50;99.90
26909;DHT22;14477;51.038;4.588;2023-11-21T04:56:15;11.40;99.90
26909;DHT22;14477;51.038;4.588;2023-11-21T04:58:41;11.40;99.90
26909;DHT22;14477;51.038;4.588;2023-11-21T05:01:08;11.40;99.90
26909;DHT22;14477;51.038;4.588;2023-11-21T05:03:33;11.50;99.90
26909;DHT22;14477;51.038;4.588;2023-11-21T05:06:00;11.50;99.90
26909;DHT22;14477;51.038;4.588;2023-11-21T05:08:25;11.40;99.90
26909;DHT22;14477;51.038;4.588;2023-11-21T05:10:52;11.50;99.90
26909;DHT22;14477;51.038;4.588;2023-11-21T05:13:19;11.50;99.90
26909;DHT22;14477;51.038;4.588;2023-11-21T05:15:45;11.50;99.90
26909;DHT22;14477;51.038;4.588;2023-11-21T05:18:11;11.50;99.90
26909;DHT22;14477;51.038;4.588;2023-11-21T05:20:39;11.50;99.90
26909;DHT22;14477;51.038;4.588;2023-11-21T05:23:06;11.50;99.90
26909;DHT22;14477;51.038;4.588;2023-11-21T05:25:32;11.50;99.90
26909;DHT22;14477;51.038;4.588;2023-11-21T05:27:58;11.50;99.90
26909;DHT22;14477;51.038;4.588;2023-11-21T05:30:26;11.00;99.90
26909;DHT22;14477;51.038;4.588;2023-11-21T05:32:52;11.30;99.90
26909;DHT22;14477;51.038;4.588;2023-11-21T05:35:18;11.50;99.90
26909;DHT22;14477;51.038;4.588;2023-11-21T05:37:45;11.50;99.90
26909;DHT22;14477;51.038;4.588;2023-11-21T05:40:11;11.60;99.90
26909;DHT22;14477;51.038;4.588;2023-11-21T05:42:39;11.50;99.90
26909;DHT22;14477;51.038;4.588;2023-11-21T05:45:07;11.60;99.90
26909;DHT22;14477;51.038;4.588;2023-11-21T05:47:39;11.60;99.90
26909;DHT22;14477;51.038;4.588;2023-11-21T05:50:07;11.60;99.90
26909;DHT22;14477;51.038;4.588;2023-11-21T05:52:36;11.60;99.90
26909;DHT22;14477;51.038;4.588;2023-11-21T05:55:03;11.60;99.90
26909;DHT22;14477;51.038;4.588;2023-11-21T05:57:30;11.60;99.90
26909;DHT22;14477;51.038;4.588;2023-11-21T05:59:56;11.60;99.90
26909;DHT22;14477;51.038;4.588;2023-11-21T06:02:21;11.60;99.90
26909;DHT22;14477;51.038;4.588;2023-11-21T06:04:47;11.60;99.90
26909;DHT22;14477;51.038;4.588;2023-11-21T06:07:13;11.60;99.90
26909;DHT22;14477;51.038;4.588;2023-11-21T06:09:38;11.60;99.90
26909;DHT22;14477;51.038;4.588;2023-11-21T06:12:04;11.60;99.90
26909;DHT22;14477;51.038;4.588;2023-11-21T06:14:31;11.70;99.90
26909;DHT22;14477;51.038;4.588;2023-11-21T06:16:58;11.90;99.90
26909;DHT22;14477;51.038;4.588;2023-11-21T06:19:24;11.60;99.90
26909;DHT22;14477;51.038;4.588;2023-11-21T06:21:50;11.70;99.90
26909;DHT22;14477;51.038;4.588;2023-11-21T06:24:16;11.70;99.90
26909;DHT22;14477;51.038;4.588;2023-11-21T06:26:42;11.70;99.90
26909;DHT22;14477;51.038;4.588;2023-11-21T06:29:09;11.70;99.90
26909;DHT22;14477;51.038;4.588;2023-11-21T06:31:36;11.80;99.90
26909;DHT22;14477;51.038;4.588;2023-11-21T06:34:02;11.70;99.90
26909;DHT22;14477;51.038;4.588;2023-11-21T06:36:28;11.70;99.90
26909;DHT22;14477;51.038;4.588;2023-11-21T06:38:54;11.80;99.90
26909;DHT22;14477;51.038;4.588;2023-11-21T06:41:20;11.80;99.90
26909;DHT22;14477;51.038;4.588;2023-11-21T06:43:46;11.80;99.90
26909;DHT22;14477;51.038;4.588;2023-11-21T06:46:12;11.80;99.90
26909;DHT22;14477;51.038;4.588;2023-11-21T06:48:42;11.80;99.90
26909;DHT22;14477;51.038;4.588;2023-11-21T06:51:08;11.80;99.90
26909;DHT22;14477;51.038;4.588;2023-11-21T06:53:36;11.80;99.90
26909;DHT22;14477;51.038;4.588;2023-11-21T06:56:02;11.80;99.90
26909;DHT22;14477;51.038;4.588;2023-11-21T06:58:28;11.80;99.90
26909;DHT22;14477;51.038;4.588;2023-11-21T07:00:54;11.80;99.90
26909;DHT22;14477;51.038;4.588;2023-11-21T07:03:20;11.80;99.90
26909;DHT22;14477;51.038;4.588;2023-11-21T07:05:45;11.80;99.90
26909;DHT22;14477;51.038;4.588;2023-11-21T07:08:11;11.80;99.90
26909;DHT22;14477;51.038;4.588;2023-11-21T07:10:38;11.80;99.90
26909;DHT22;14477;51.038;4.588;2023-11-21T07:13:04;11.80;99.90
26909;DHT22;14477;51.038;4.588;2023-11-21T07:15:30;11.80;99.90
26909;DHT22;14477;51.038;4.588;2023-11-21T07:17:55;11.80;99.90
26909;DHT22;14477;51.038;4.588;2023-11-21T07:20:21;11.80;99.90
26909;DHT22;14477;51.038;4.588;2023-11-21T07:22:47;11.80;99.90
26909;DHT22;14477;51.038;4.588;2023-11-21T07:25:13;11.80;99.90
26909;DHT22;14477;51.038;4.588;2023-11-21T07:27:38;11.80;99.90
26909;DHT22;14477;51.038;4.588;2023-11-21T07:30:05;11.80;99.90
26909;DHT22;14477;51.038;4.588;2023-11-21T07:32:32;11.80;99.90
26909;DHT22;14477;51.038;4.588;2023-11-21T07:34:57;11.80;99.90
26909;DHT22;14477;51.038;4.588;2023-11-21T07:37:25;11.90;99.90
26909;DHT22;14477;51.038;4.588;2023-11-21T07:39:54;11.90;99.90
26909;DHT22;14477;51.038;4.588;2023-11-21T07:42:25;11.90;99.90
26909;DHT22;14477;51.038;4.588;2023-11-21T07:44:52;11.90;99.90
26909;DHT22;14477;51.038;4.588;2023-11-21T07:47:18;11.90;99.90
26909;DHT22;14477;51.038;4.588;2023-11-21T07:49:43;11.90;99.90
26909;DHT22;14477;51.038;4.588;2023-11-21T07:52:10;12.00;99.90
26909;DHT22;14477;51.038;4.588;2023-11-21T07:54:36;12.00;99.90
26909;DHT22;14477;51.038;4.588;2023-11-21T07:57:03;12.00;99.90
26909;DHT22;14477;51.038;4.588;2023-11-21T07:59:30;11.90;99.90
26909;DHT22;14477;51.038;4.588;2023-11-21T08:01:56;12.00;99.90
26909;DHT22;14477;51.038;4.588;2023-11-21T08:04:21;12.00;99.90
26909;DHT22;14477;51.038;4.588;2023-11-21T08:06:47;12.00;99.90
26909;DHT22;14477;51.038;4.588;2023-11-21T08:09:14;12.00;99.90
26909;DHT22;14477;51.038;4.588;2023-11-21T08:11:41;12.10;99.90
26909;DHT22;14477;51.038;4.588;2023-11-21T08:14:07;12.10;99.90
26909;DHT22;14477;51.038;4.588;2023-11-21T08:16:33;12.10;99.90
26909;DHT22;14477;51.038;4.588;2023-11-21T08:18:59;12.10;99.90
26909;DHT22;14477;51.038;4.588;2023-11-21T08:21:25;12.10;99.90
26909;DHT22;14477;51.038;4.588;2023-11-21T08:23:52;12.20;99.90
26909;DHT22;14477;51.038;4.588;2023-11-21T08:26:21;12.10;99.90
26909;DHT22;14477;51.038;4.588;2023-11-21T08:28:47;12.20;99.90
26909;DHT22;14477;51.038;4.588;2023-11-21T08:31:13;12.20;99.90
26909;DHT22;14477;51.038;4.588;2023-11-21T08:33:39;12.20;99.90
26909;DHT22;14477;51.038;4.588;2023-11-21T08:36:09;12.30;99.90
26909;DHT22;14477;51.038;4.588;2023-11-21T08:38:36;12.30;99.90
26909;DHT22;14477;51.038;4.588;2023-11-21T08:41:07;12.30;99.90
26909;DHT22;14477;51.038;4.588;2023-11-21T08:43:36;12.30;99.90
26909;DHT22;14477;51.038;4.588;2023-11-21T08:46:06;12.30;99.90
26909;DHT22;14477;51.038;4.588;2023-11-21T08:48:32;12.40;99.90
26909;DHT22;14477;51.038;4.588;2023-11-21T08:50:58;12.40;99.90
26909;DHT22;14477;51.038;4.588;2023-11-21T08:53:24;12.40;99.90
26909;DHT22;14477;51.038;4.588;2023-11-21T08:55:51;12.40;99.90
26909;DHT22;14477;51.038;4.588;2023-11-21T08:58:19;12.40;99.90
26909;DHT22;14477;51.038;4.588;2023-11-21T09:00:45;12.40;99.90
26909;DHT22;14477;51.038;4.588;2023-11-21T09:03:12;12.50;99.90
26909;DHT22;14477;51.038;4.588;2023-11-21T09:05:39;12.50;99.90
26909;DHT22;14477;51.038;4.588;2023-11-21T09:08:05;12.50;99.90
26909;DHT22;14477;51.038;4.588;2023-11-21T09:10:33;12.50;99.90
26909;DHT22;14477;51.038;4.588;2023-11-21T09:13:02;12.50;99.90
26909;DHT22;14477;51.038;4.588;2023-11-21T09:15:28;12.50;99.90
26909;DHT22;14477;51.038;4.588;2023-11-21T09:17:54;12.50;99.90
26909;DHT22;14477;51.038;4.588;2023-11-21T09:20:19;12.50;99.90
26909;DHT22;14477;51.038;4.588;2023-11-21T09:22:48;12.60;99.90
26909;DHT22;14477;51.038;4.588;2023-11-21T09:25:15;12.60;99.90
26909;DHT22;14477;51.038;4.588;2023-11-21T09:27:41;12.60;99.90
26909;DHT22;14477;51.038;4.588;2023-11-21T09:30:07;12.60;99.90
26909;DHT22;14477;51.038;4.588;2023-11-21T09:32:37;12.70;99.90
26909;DHT22;14477;51.038;4.588;2023-11-21T09:35:04;12.70;99.90
26909;DHT22;14477;51.038;4.588;2023-11-21T09:37:31;12.70;99.90
26909;DHT22;14477;51.038;4.588;2023-11-21T09:39:57;12.70;99.90
26909;DHT22;14477;51.038;4.588;2023-11-21T09:42:37;12.80;99.90
26909;DHT22;14477;51.038;4.588;2023-11-21T09:45:31;12.70;99.90
26909;DHT22;14477;51.038;4.588;2023-11-21T09:48:00;12.80;99.90
26909;DHT22;14477;51.038;4.588;2023-11-21T09:50:27;12.80;99.90
26909;DHT22;14477;51.038;4.588;2023-11-21T09:55:36;12.80;99.90
26909;DHT22;14477;51.038;4.588;2023-11-21T09:58:05;12.80;99.90
26909;DHT22;14477;51.038;4.588;2023-11-21T10:00:33;12.90;99.90
26909;DHT22;14477;51.038;4.588;2023-11-21T10:02:59;12.90;99.90
26909;DHT22;14477;51.038;4.588;2023-11-21T10:05:26;13.00;99.90
26909;DHT22;14477;51.038;4.588;2023-11-21T10:07:52;13.10;99.90
26909;DHT22;14477;51.038;4.588;2023-11-21T10:10:19;13.20;99.90
26909;DHT22;14477;51.038;4.588;2023-11-21T10:12:50;13.30;99.90
26909;DHT22;14477;51.038;4.588;2023-11-21T10:15:21;13.40;99.90
26909;DHT22;14477;51.038;4.588;2023-11-21T10:17:49;13.50;99.90
26909;DHT22;14477;51.038;4.588;2023-11-21T10:20:16;13.50;99.90
26909;DHT22;14477;51.038;4.588;2023-11-21T10:22:42;13.60;99.90
26909;DHT22;14477;51.038;4.588;2023-11-21T10:25:09;13.60;99.90
26909;DHT22;14477;51.038;4.588;2023-11-21T10:27:37;13.60;99.90
26909;DHT22;14477;51.038;4.588;2023-11-21T10:30:06;13.60;99.90
26909;DHT22;14477;51.038;4.588;2023-11-21T10:32:39;13.60;99.90
26909;DHT22;14477;51.038;4.588;2023-11-21T10:35:07;13.60;99.90
26909;DHT22;14477;51.038;4.588;2023-11-21T10:37:39;13.60;99.90
26909;DHT22;14477;51.038;4.588;2023-11-21T10:40:07;13.60;99.90
26909;DHT22;14477;51.038;4.588;2023-11-21T10:42:33;13.60;99.90
26909;DHT22;14477;51.038;4.588;2023-11-21T10:44:59;13.60;99.90
26909;DHT22;14477;51.038;4.588;2023-11-21T10:47:26;13.60;99.90
26909;DHT22;14477;51.038;4.588;2023-11-21T10:49:52;13.60;99.90
26909;DHT22;14477;51.038;4.588;2023-11-21T10:52:21;13.60;99.90
26909;DHT22;14477;51.038;4.588;2023-11-21T10:54:48;13.70;99.90
26909;DHT22;14477;51.038;4.588;2023-11-21T10:57:17;13.70;99.90
26909;DHT22;14477;51.038;4.588;2023-11-21T10:59:46;13.80;99.90
26909;DHT22;14477;51.038;4.588;2023-11-21T11:02:23;13.80;99.90
26909;DHT22;14477;51.038;4.588;2023-11-21T11:04:52;13.90;99.90
26909;DHT22;14477;51.038;4.588;2023-11-21T11:07:19;13.90;99.90
26909;DHT22;14477;51.038;4.588;2023-11-21T11:09:46;14.00;99.90
26909;DHT22;14477;51.038;4.588;2023-11-21T11:12:13;14.00;99.90
26909;DHT22;14477;51.038;4.588;2023-11-21T11:14:43;14.10;99.90
26909;DHT22;14477;51.038;4.588;2023-11-21T11:17:10;14.10;99.90
26909;DHT22;14477;51.038;4.588;2023-11-21T11:19:36;14.20;99.90
26909;DHT22;14477;51.038;4.588;2023-11-21T11:22:37;14.30;99.90
26909;DHT22;14477;51.038;4.588;2023-11-21T11:30:37;14.50;99.90
26909;DHT22;14477;51.038;4.588;2023-11-21T11:33:11;14.60;99.90
26909;DHT22;14477;51.038;4.588;2023-11-21T11:35:54;14.60;99.90
26909;DHT22;14477;51.038;4.588;2023-11-21T11:38:22;14.60;99.90
26909;DHT22;14477;51.038;4.588;2023-11-21T11:40:53;14.60;99.90
26909;DHT22;14477;51.038;4.588;2023-11-21T11:43:27;14.60;99.90
26909;DHT22;14477;51.038;4.588;2023-11-21T11:45:57;14.60;99.90
26909;DHT22;14477;51.038;4.588;2023-11-21T11:48:24;14.60;99.90
26909;DHT22;14477;51.038;4.588;2023-11-21T11:51:10;14.50;99.90
26909;DHT22;14477;51.038;4.588;2023-11-21T11:53:47;14.50;99.90
26909;DHT22;14477;51.038;4.588;2023-11-21T11:58:44;14.50;99.90
26909;DHT22;14477;51.038;4.588;2023-11-21T12:01:11;16.10;99.90
26909;DHT22;14477;51.038;4.588;2023-11-21T12:03:37;14.40;99.90
26909;DHT22;14477;51.038;4.588;2023-11-21T12:06:05;14.40;99.90
26909;DHT22;14477;51.038;4.588;2023-11-21T12:08:32;14.40;99.90
26909;DHT22;14477;51.038;4.588;2023-11-21T12:10:58;14.40;99.90
26909;DHT22;14477;51.038;4.588;2023-11-21T12:13:24;14.40;99.90
26909;DHT22;14477;51.038;4.588;2023-11-21T12:15:50;14.30;99.90
26909;DHT22;14477;51.038;4.588;2023-11-21T12:18:16;14.30;99.90
26909;DHT22;14477;51.038;4.588;2023-11-21T12:20:42;14.40;99.90
26909;DHT22;14477;51.038;4.588;2023-11-21T12:23:08;14.40;99.90
26909;DHT22;14477;51.038;4.588;2023-11-21T12:25:39;14.40;99.90
26909;DHT22;14477;51.038;4.588;2023-11-21T12:28:07;14.40;99.90
26909;DHT22;14477;51.038;4.588;2023-11-21T12:30:34;14.40;99.90
26909;DHT22;14477;51.038;4.588;2023-11-21T12:33:02;14.40;99.90
26909;DHT22;14477;51.038;4.588;2023-11-21T12:35:29;14.40;99.90
26909;DHT22;14477;51.038;4.588;2023-11-21T12:37:56;14.40;99.90
26909;DHT22;14477;51.038;4.588;2023-11-21T12:40:25;14.40;99.90
26909;DHT22;14477;51.038;4.588;2023-11-21T12:42:53;14.40;99.90
26909;DHT22;14477;51.038;4.588;2023-11-21T12:45:27;14.30;99.90
26909;DHT22;14477;51.038;4.588;2023-11-21T12:47:58;14.30;99.90
26909;DHT22;14477;51.038;4.588;2023-11-21T12:50:27;14.30;99.90
26909;DHT22;14477;51.038;4.588;2023-11-21T12:53:00;14.30;99.90
26909;DHT22;14477;51.038;4.588;2023-11-21T12:55:32;14.30;99.90
26909;DHT22;14477;51.038;4.588;2023-11-21T12:58:01;14.30;99.90
26909;DHT22;14477;51.038;4.588;2023-11-21T13:03:06;14.40;99.90
26909;DHT22;14477;51.038;4.588;2023-11-21T13:05:37;14.40;99.90
26909;DHT22;14477;51.038;4.588;2023-11-21T13:08:09;14.40;99.90
26909;DHT22;14477;51.038;4.588;2023-11-21T13:10:40;14.50;99.90
26909;DHT22;14477;51.038;4.588;2023-11-21T13:13:09;14.50;99.90
26909;DHT22;14477;51.038;4.588;2023-11-21T13:15:56;14.50;99.90
26909;DHT22;14477;51.038;4.588;2023-11-21T13:18:25;14.50;99.90
26909;DHT22;14477;51.038;4.588;2023-11-21T13:21:04;14.50;99.90
26909;DHT22;14477;51.038;4.588;2023-11-21T13:23:37;14.50;99.90
26909;DHT22;14477;51.038;4.588;2023-11-21T13:26:03;14.40;99.90
26909;DHT22;14477;51.038;4.588;2023-11-21T13:28:30;14.50;99.90
26909;DHT22;14477;51.038;4.588;2023-11-21T13:30:59;14.40;99.90
26909;DHT22;14477;51.038;4.588;2023-11-21T13:33:45;14.40;99.90
26909;DHT22;14477;51.038;4.588;2023-11-21T13:36:15;14.50;99.90
26909;DHT22;14477;51.038;4.588;2023-11-21T13:38:48;14.40;99.90
26909;DHT22;14477;51.038;4.588;2023-11-21T13:41:14;14.50;99.90
26909;DHT22;14477;51.038;4.588;2023-11-21T13:43:40;14.50;99.90
26909;DHT22;14477;51.038;4.588;2023-11-21T13:46:09;14.40;99.90
26909;DHT22;14477;51.038;4.588;2023-11-21T13:48:47;14.40;99.90
26909;DHT22;14477;51.038;4.588;2023-11-21T13:51:19;14.40;99.90
26909;DHT22;14477;51.038;4.588;2023-11-21T13:53:47;14.30;99.90
26909;DHT22;14477;51.038;4.588;2023-11-21T13:56:18;14.30;99.90
26909;DHT22;14477;51.038;4.588;2023-11-21T13:58:50;14.20;99.90
26909;DHT22;14477;51.038;4.588;2023-11-21T14:01:24;14.20;99.90
26909;DHT22;14477;51.038;4.588;2023-11-21T14:03:59;14.10;99.90
26909;DHT22;14477;51.038;4.588;2023-11-21T14:06:49;14.10;99.90
26909;DHT22;14477;51.038;4.588;2023-11-21T14:09:22;14.00;99.90
26909;DHT22;14477;51.038;4.588;2023-11-21T14:11:57;14.00;99.90
26909;DHT22;14477;51.038;4.588;2023-11-21T14:14:27;14.00;99.90
26909;DHT22;14477;51.038;4.588;2023-11-21T14:16:56;13.90;99.90
26909;DHT22;14477;51.038;4.588;2023-11-21T14:19:22;13.90;99.90
26909;DHT22;14477;51.038;4.588;2023-11-21T14:21:52;13.90;99.90
26909;DHT22;14477;51.038;4.588;2023-11-21T14:24:19;13.80;99.90
26909;DHT22;14477;51.038;4.588;2023-11-21T14:26:46;13.80;99.90
26909;DHT22;14477;51.038;4.588;2023-11-21T14:29:13;13.80;99.90
26909;DHT22;14477;51.038;4.588;2023-11-21T14:31:41;13.80;99.90
26909;DHT22;14477;51.038;4.588;2023-11-21T14:34:08;13.80;99.90
26909;DHT22;14477;51.038;4.588;2023-11-21T14:36:34;13.80;99.90
26909;DHT22;14477;51.038;4.588;2023-11-21T14:39:02;13.80;99.90
26909;DHT22;14477;51.038;4.588;2023-11-21T14:41:32;13.70;99.90
26909;DHT22;14477;51.038;4.588;2023-11-21T14:44:01;13.70;99.90
26909;DHT22;14477;51.038;4.588;2023-11-21T14:46:29;13.70;99.90
26909;DHT22;14477;51.038;4.588;2023-11-21T14:48:55;13.60;99.90
26909;DHT22;14477;51.038;4.588;2023-11-21T14:51:48;13.60;99.90
26909;DHT22;14477;51.038;4.588;2023-11-21T14:54:32;13.60;99.90
26909;DHT22;14477;51.038;4.588;2023-11-21T14:57:11;13.70;99.90
26909;DHT22;14477;51.038;4.588;2023-11-21T14:59:47;13.60;99.90
26909;DHT22;14477;51.038;4.588;2023-11-21T15:02:15;13.60;99.90
26909;DHT22;14477;51.038;4.588;2023-11-21T15:04:42;13.50;99.90
26909;DHT22;14477;51.038;4.588;2023-11-21T15:07:08;13.50;99.90
26909;DHT22;14477;51.038;4.588;2023-11-21T15:09:36;13.50;99.90
26909;DHT22;14477;51.038;4.588;2023-11-21T15:12:07;13.50;99.90
26909;DHT22;14477;51.038;4.588;2023-11-21T15:14:46;12.60;99.90
26909;DHT22;14477;51.038;4.588;2023-11-21T15:17:15;13.40;99.90
26909;DHT22;14477;51.038;4.588;2023-11-21T15:19:56;13.40;99.90
26909;DHT22;14477;51.038;4.588;2023-11-21T15:22:22;13.40;99.90
26909;DHT22;14477;51.038;4.588;2023-11-21T15:24:49;13.40;99.90
26909;DHT22;14477;51.038;4.588;2023-11-21T15:27:16;13.40;99.90
26909;DHT22;14477;51.038;4.588;2023-11-21T15:29:45;13.30;99.90
26909;DHT22;14477;51.038;4.588;2023-11-21T15:32:12;13.30;99.90
26909;DHT22;14477;51.038;4.588;2023-11-21T15:34:38;13.30;99.90
26909;DHT22;14477;51.038;4.588;2023-11-21T15:37:06;13.30;99.90
26909;DHT22;14477;51.038;4.588;2023-11-21T15:39:37;13.30;99.90
26909;DHT22;14477;51.038;4.588;2023-11-21T15:42:04;13.30;99.90
26909;DHT22;14477;51.038;4.588;2023-11-21T15:44:32;11.70;99.90
26909;DHT22;14477;51.038;4.588;2023-11-21T15:46:59;13.30;99.90